To NAV CANADA Home Page Login to a new session Search on AWWS site Feedback and Comments Disclaimer Vers la page française équivalente Tips FAQ What's new on the site To the Forecasts and Observations / NOTAM section To "File a Flight Plan" website Publications and other links Update of the User's profile FIC Telephone Numbers My Weather Data Folder Route Weather Data Regional Weather Data Local Weather Data To the Forecasts and Observations / NOTAM section
Request Generated 06/26/2017 at 22:32:58 UTC . Weather information available at that time is displayed.

METAR/TAF

GREENWOOD/NS    

METAR CYZX 262200Z 28010G18KT 15SM FEW100 23/12 A2987 RMK AC2 WNDY HILL UNABL SLP117=
METAR CYZX 262100Z 27014G20KT 15SM FEW100 24/12 A2987 RMK AC2 WNDY HILL UNABL SLP115=
METAR CYZX 262000Z 27013G19KT 15SM FEW090 24/09 A2986 RMK AC2 WNDY HILL UNABL SLP113=

TAF CYZX 261730Z 2618/2718 29012KT P6SM FEW100
BECMG 2622/2624 25008KT
FM270300 VRB03KT P6SM SCT050
RMK NXT FCST BY 270000Z=
Your time UTC time
Weather data provided by Environment Canada and NAV CANADA